createdAt,value
2022-08-25T00:00:13.435Z,2.83
2022-08-25T00:02:40.538Z,2.65
2022-08-25T00:05:07.599Z,2.92
2022-08-25T00:07:36.457Z,2.27
2022-08-25T00:10:04.686Z,3.00
2022-08-25T00:12:31.251Z,2.45
2022-08-25T00:14:58.065Z,2.10
2022-08-25T00:17:24.960Z,3.05
2022-08-25T00:19:51.608Z,2.50
2022-08-25T00:22:18.183Z,2.50
2022-08-25T00:24:44.746Z,2.95
2022-08-25T00:27:12.686Z,2.63
2022-08-25T00:29:39.792Z,2.70
2022-08-25T00:32:06.758Z,3.00
2022-08-25T00:34:36.604Z,2.35
2022-08-25T00:37:07.338Z,2.20
2022-08-25T00:39:34.096Z,2.65
2022-08-25T00:42:01.250Z,2.33
2022-08-25T00:44:30.315Z,2.88
2022-08-25T00:49:40.549Z,2.30
2022-08-25T00:52:14.149Z,2.33
2022-08-25T00:54:52.891Z,2.53
2022-08-25T00:57:34.223Z,2.30
2022-08-25T01:00:05.791Z,2.45
2022-08-25T01:02:32.581Z,2.70
2022-08-25T01:04:59.373Z,2.90
2022-08-25T01:07:25.955Z,2.75
2022-08-25T01:09:52.785Z,3.35
2022-08-25T01:12:19.578Z,2.95
2022-08-25T01:14:46.726Z,3.22
2022-08-25T01:17:14.806Z,2.60
2022-08-25T01:19:42.039Z,2.47
2022-08-25T01:22:12.083Z,2.80
2022-08-25T01:24:43.549Z,2.58
2022-08-25T01:27:10.673Z,2.58
2022-08-25T01:29:38.615Z,2.53
2022-08-25T01:32:09.732Z,2.63
2022-08-25T01:34:43.507Z,2.80
2022-08-25T01:37:13.351Z,2.90
2022-08-25T01:39:41.758Z,2.65
2022-08-25T01:42:11.626Z,3.08
2022-08-25T01:44:40.593Z,2.90
2022-08-25T01:47:08.180Z,3.05
2022-08-25T01:49:35.150Z,3.38
2022-08-25T01:52:07.636Z,3.10
2022-08-25T01:54:34.173Z,3.75
2022-08-25T01:57:00.738Z,4.07
2022-08-25T01:59:27.398Z,4.35
2022-08-25T02:01:59.526Z,3.60
2022-08-25T02:04:29.474Z,3.58
2022-08-25T02:06:56.197Z,3.70
2022-08-25T02:09:22.985Z,3.85
2022-08-25T02:11:49.640Z,3.22
2022-08-25T02:14:18.456Z,3.50
2022-08-25T02:16:48.515Z,3.72
2022-08-25T02:19:16.149Z,3.40
2022-08-25T02:21:42.800Z,3.70
2022-08-25T02:24:10.134Z,3.38
2022-08-25T02:26:36.721Z,3.20
2022-08-25T02:29:04.636Z,3.47
2022-08-25T02:31:31.653Z,2.90
2022-08-25T02:33:58.255Z,3.15
2022-08-25T02:36:24.798Z,3.05
2022-08-25T02:38:51.353Z,3.38
2022-08-25T02:41:21.334Z,3.97
2022-08-25T02:43:48.758Z,3.63
2022-08-25T02:46:17.258Z,4.28
2022-08-25T02:48:44.542Z,4.07
2022-08-25T02:51:12.344Z,3.70
2022-08-25T02:53:40.503Z,4.00
2022-08-25T02:56:08.832Z,4.40
2022-08-25T02:58:36.065Z,4.57
2022-08-25T03:01:03.433Z,4.10
2022-08-25T03:03:30.226Z,3.80
2022-08-25T03:05:57.457Z,4.10
2022-08-25T03:08:24.719Z,4.10
2022-08-25T03:10:51.378Z,3.83
2022-08-25T03:13:19.594Z,3.40
2022-08-25T03:15:46.235Z,2.95
2022-08-25T03:18:16.125Z,3.40
2022-08-25T03:20:44.532Z,3.65
2022-08-25T03:23:11.324Z,3.17
2022-08-25T03:26:01.915Z,3.42
2022-08-25T03:28:32.989Z,3.03
2022-08-25T03:31:03.034Z,3.10
2022-08-25T03:33:30.654Z,3.22
2022-08-25T03:35:57.937Z,2.78
2022-08-25T03:38:25.415Z,2.95
2022-08-25T03:40:52.061Z,2.70
2022-08-25T03:43:19.433Z,2.38
2022-08-25T03:45:46.475Z,2.70
2022-08-25T03:48:14.248Z,2.72
2022-08-25T03:50:50.580Z,2.63
2022-08-25T03:53:19.121Z,2.63
2022-08-25T03:55:45.688Z,2.33
2022-08-25T03:58:12.448Z,2.53
2022-08-25T04:00:39.521Z,2.42
2022-08-25T04:03:06.594Z,2.10
2022-08-25T04:05:33.697Z,2.38
2022-08-25T04:08:01.917Z,2.65
2022-08-25T04:10:29.546Z,2.50
2022-08-25T04:12:57.027Z,2.67
2022-08-25T04:15:24.945Z,2.67
2022-08-25T04:17:55.638Z,1.95
2022-08-25T04:20:22.218Z,2.88
2022-08-25T04:22:48.819Z,2.17
2022-08-25T04:25:15.454Z,2.50
2022-08-25T04:27:42.092Z,2.45
2022-08-25T04:30:09.218Z,2.40
2022-08-25T04:32:36.749Z,2.10
2022-08-25T04:35:05.387Z,2.78
2022-08-25T04:37:33.410Z,2.40
2022-08-25T04:40:00.283Z,2.42
2022-08-25T04:42:27.335Z,2.30
2022-08-25T04:44:54.546Z,2.33
2022-08-25T04:47:21.339Z,2.35
2022-08-25T04:49:48.025Z,2.50
2022-08-25T04:52:14.809Z,2.40
2022-08-25T04:54:42.197Z,2.42
2022-08-25T04:57:08.772Z,2.60
2022-08-25T04:59:35.398Z,2.80
2022-08-25T05:02:02.986Z,2.25
2022-08-25T05:04:31.250Z,2.50
2022-08-25T05:06:58.317Z,2.17
2022-08-25T05:09:26.089Z,3.15
2022-08-25T05:11:53.937Z,2.53
2022-08-25T05:14:25.553Z,2.70
2022-08-25T05:16:53.273Z,3.20
2022-08-25T05:19:20.252Z,2.88
2022-08-25T05:21:47.166Z,2.70
2022-08-25T05:24:13.809Z,3.15
2022-08-25T05:26:40.767Z,3.03
2022-08-25T05:29:08.250Z,3.08
2022-08-25T05:31:41.385Z,2.92
2022-08-25T05:34:10.329Z,3.55
2022-08-25T05:36:37.117Z,4.25
2022-08-25T05:39:04.749Z,4.90
2022-08-25T05:41:31.512Z,5.35
2022-08-25T05:43:58.274Z,5.95
2022-08-25T05:46:25.294Z,6.30
2022-08-25T05:48:52.318Z,7.18
2022-08-25T05:51:20.002Z,6.63
2022-08-25T05:53:49.232Z,7.45
2022-08-25T05:58:43.350Z,6.93
2022-08-25T06:01:36.495Z,6.60
2022-08-25T06:04:03.527Z,6.88
2022-08-25T06:06:30.168Z,7.53
2022-08-25T06:08:56.744Z,8.10
2022-08-25T06:11:23.820Z,7.80
2022-08-25T06:13:50.367Z,7.30
2022-08-25T06:16:17.276Z,7.80
2022-08-25T06:18:43.927Z,7.63
2022-08-25T06:21:12.880Z,7.72
2022-08-25T06:23:40.336Z,7.20
2022-08-25T06:26:10.855Z,6.43
2022-08-25T06:28:41.133Z,6.45
2022-08-25T06:31:07.913Z,7.07
2022-08-25T06:33:34.582Z,6.28
2022-08-25T06:36:01.208Z,5.88
2022-08-25T06:38:28.738Z,5.68
2022-08-25T06:40:58.393Z,5.45
2022-08-25T06:43:25.067Z,5.45
2022-08-25T06:45:52.071Z,5.28
2022-08-25T06:48:18.734Z,5.13
2022-08-25T06:50:46.002Z,4.78
2022-08-25T06:53:13.241Z,4.78
2022-08-25T06:55:40.005Z,4.72
2022-08-25T06:58:06.844Z,4.38
2022-08-25T07:00:38.152Z,3.80
2022-08-25T07:03:05.073Z,4.10
2022-08-25T07:05:43.144Z,4.40
2022-08-25T07:08:12.057Z,4.47
2022-08-25T07:10:38.955Z,4.25
2022-08-25T07:13:05.585Z,4.35
2022-08-25T07:15:32.204Z,4.25
2022-08-25T07:17:58.768Z,3.92
2022-08-25T07:22:58.276Z,3.80
2022-08-25T07:25:25.069Z,3.60
2022-08-25T07:27:53.875Z,3.58
2022-08-25T07:30:24.014Z,3.20
2022-08-25T07:32:55.090Z,3.03
2022-08-25T07:35:38.010Z,3.03
2022-08-25T07:38:06.629Z,3.08
2022-08-25T07:40:37.361Z,2.78
2022-08-25T07:43:10.440Z,2.80
2022-08-25T07:45:46.843Z,2.50
2022-08-25T07:48:20.134Z,2.55
2022-08-25T07:50:47.741Z,2.55
2022-08-25T07:53:16.232Z,2.40
2022-08-25T07:55:45.032Z,2.35
2022-08-25T07:58:12.347Z,2.08
2022-08-25T08:00:42.351Z,2.28
2022-08-25T08:03:12.888Z,2.22
2022-08-25T08:05:50.703Z,2.20
2022-08-25T08:08:17.477Z,1.80
2022-08-25T08:11:03.167Z,1.95
2022-08-25T08:13:36.683Z,1.80
2022-08-25T08:16:10.365Z,1.73
2022-08-25T08:18:38.298Z,1.90
2022-08-25T08:21:05.438Z,1.70
2022-08-25T08:23:32.082Z,2.42
2022-08-25T08:25:58.997Z,1.75
2022-08-25T08:28:27.956Z,1.70
2022-08-25T08:30:54.663Z,1.95
2022-08-25T08:33:23.854Z,1.83
2022-08-25T08:38:32.826Z,1.88
2022-08-25T08:41:30.538Z,1.60
2022-08-25T08:44:10.586Z,1.95
2022-08-25T08:46:48.107Z,2.08
2022-08-25T08:49:41.036Z,2.17
2022-08-25T08:52:11.136Z,2.40
2022-08-25T08:54:41.231Z,2.03
2022-08-25T08:57:20.360Z,2.47
2022-08-25T09:00:01.457Z,2.00
2022-08-25T09:02:51.528Z,1.98
2022-08-25T09:05:20.917Z,1.67
2022-08-25T09:08:04.707Z,1.38
2022-08-25T09:10:44.625Z,1.50
2022-08-25T09:13:26.137Z,1.48
2022-08-25T09:16:33.938Z,1.42
2022-08-25T09:19:23.633Z,1.58
2022-08-25T09:22:35.430Z,1.50
2022-08-25T09:25:54.048Z,1.30
2022-08-25T09:28:30.826Z,1.38
2022-08-25T09:31:16.442Z,1.30
2022-08-25T09:33:43.730Z,1.30
2022-08-25T09:36:10.964Z,1.30
2022-08-25T09:38:38.538Z,1.58
2022-08-25T09:41:05.764Z,1.45
2022-08-25T09:43:38.647Z,1.30
2022-08-25T09:46:05.491Z,1.27
2022-08-25T09:48:55.968Z,1.30
2022-08-25T09:51:27.118Z,1.30
2022-08-25T09:53:59.270Z,1.20
2022-08-25T09:56:29.226Z,1.20
2022-08-25T09:59:02.450Z,1.25
2022-08-25T10:01:29.615Z,1.38
2022-08-25T10:04:06.074Z,1.23
2022-08-25T10:06:46.518Z,1.50
2022-08-25T10:09:31.368Z,1.17
2022-08-25T10:12:01.597Z,1.02
2022-08-25T10:14:33.894Z,1.27
2022-08-25T10:17:27.392Z,0.90
2022-08-25T10:20:20.029Z,1.00
2022-08-25T10:22:50.437Z,1.10
2022-08-25T10:25:25.490Z,1.13
2022-08-25T10:28:20.056Z,1.10
2022-08-25T10:30:58.836Z,1.02
2022-08-25T10:33:37.495Z,1.20
2022-08-25T10:36:21.258Z,1.00
2022-08-25T10:38:54.199Z,4.85
2022-08-25T10:41:51.243Z,3.17
2022-08-25T10:44:49.039Z,1.70
2022-08-25T10:47:33.066Z,1.60
2022-08-25T10:50:45.471Z,1.77
2022-08-25T10:53:26.184Z,1.80
2022-08-25T10:56:07.359Z,1.60
2022-08-25T10:59:01.511Z,1.90
2022-08-25T11:01:36.709Z,1.80
2022-08-25T11:04:45.079Z,2.00
2022-08-25T11:07:33.777Z,1.20
2022-08-25T11:10:06.979Z,1.33
2022-08-25T11:12:44.181Z,1.35
2022-08-25T11:15:15.451Z,1.70
2022-08-25T11:17:51.331Z,1.17
2022-08-25T11:20:26.736Z,1.40
2022-08-25T11:23:03.298Z,1.10
2022-08-25T11:25:35.714Z,1.30
2022-08-25T11:28:15.736Z,1.25
2022-08-25T11:30:44.502Z,1.17
2022-08-25T11:33:17.593Z,1.50
2022-08-25T11:36:05.522Z,1.13
2022-08-25T11:38:51.983Z,1.38
2022-08-25T11:41:42.283Z,1.40
2022-08-25T11:44:30.701Z,1.20
2022-08-25T11:47:00.128Z,1.20
2022-08-25T11:49:41.926Z,1.20
2022-08-25T11:52:34.924Z,1.00
2022-08-25T11:55:15.888Z,1.10
2022-08-25T11:57:44.124Z,1.27
2022-08-25T12:00:20.147Z,1.13
2022-08-25T12:02:51.453Z,1.13
2022-08-25T12:05:24.272Z,1.00
2022-08-25T12:08:14.168Z,1.20
2022-08-25T12:11:02.126Z,1.00
2022-08-25T12:13:39.661Z,0.90
2022-08-25T12:16:07.247Z,1.10
2022-08-25T12:18:45.816Z,1.40
2022-08-25T12:21:14.460Z,1.10
2022-08-25T12:24:04.652Z,1.02
2022-08-25T12:26:52.241Z,1.27
2022-08-25T12:29:39.131Z,1.25
2022-08-25T12:32:14.895Z,1.25
2022-08-25T12:35:09.076Z,1.00
2022-08-25T12:37:53.930Z,1.02
2022-08-25T12:40:43.859Z,1.20
2022-08-25T12:43:24.889Z,0.95
2022-08-25T12:45:53.776Z,0.90
2022-08-25T12:48:26.545Z,1.27
2022-08-25T12:51:02.059Z,1.00
2022-08-25T12:53:35.616Z,1.00
2022-08-25T12:56:20.171Z,1.20
2022-08-25T12:59:01.851Z,1.23
2022-08-25T13:01:36.383Z,1.10
2022-08-25T13:04:25.641Z,1.00
2022-08-25T13:07:31.377Z,1.10
2022-08-25T13:10:13.445Z,1.40
2022-08-25T13:13:06.818Z,1.15
2022-08-25T13:15:37.085Z,1.10
2022-08-25T13:18:23.893Z,1.33
2022-08-25T13:21:25.494Z,1.13
2022-08-25T13:24:01.648Z,1.17
2022-08-25T13:26:35.236Z,1.10
2022-08-25T13:29:17.746Z,1.20
2022-08-25T13:31:53.985Z,1.20
2022-08-25T13:34:23.674Z,1.20
2022-08-25T13:37:29.762Z,0.82
2022-08-25T13:40:10.947Z,1.25
2022-08-25T13:42:42.423Z,0.90
2022-08-25T13:45:14.976Z,0.82
2022-08-25T13:47:45.212Z,0.82
2022-08-25T13:50:16.713Z,0.95
2022-08-25T13:52:48.065Z,1.20
2022-08-25T13:55:21.954Z,1.30
2022-08-25T13:57:55.112Z,1.02
2022-08-25T14:00:47.259Z,1.10
2022-08-25T14:03:35.571Z,1.20
2022-08-25T14:08:59.478Z,1.10
2022-08-25T14:11:49.912Z,1.08
2022-08-25T14:14:37.648Z,1.05
2022-08-25T14:17:22.325Z,1.20
2022-08-25T14:19:56.728Z,1.10
2022-08-25T14:22:23.389Z,1.00
2022-08-25T14:24:53.386Z,1.00
2022-08-25T14:29:50.932Z,1.10
2022-08-25T14:32:19.244Z,1.23
2022-08-25T14:34:46.191Z,1.05
2022-08-25T14:37:16.829Z,1.00
2022-08-25T14:39:44.661Z,1.10
2022-08-25T14:42:12.314Z,1.20
2022-08-25T14:44:39.179Z,1.10
2022-08-25T14:47:07.167Z,1.05
2022-08-25T14:49:37.122Z,1.10
2022-08-25T14:52:10.437Z,1.00
2022-08-25T14:54:39.533Z,0.95
2022-08-25T14:57:08.368Z,1.05
2022-08-25T14:59:35.457Z,1.27
2022-08-25T15:02:02.133Z,1.30
2022-08-25T15:04:30.059Z,1.45
2022-08-25T15:07:00.114Z,1.48
2022-08-25T15:09:33.355Z,1.10
2022-08-25T15:12:00.287Z,1.25
2022-08-25T15:14:28.486Z,1.38
2022-08-25T15:16:59.488Z,1.10
2022-08-25T15:19:27.068Z,1.42
2022-08-25T15:21:54.491Z,1.20
2022-08-25T15:24:25.973Z,1.10
2022-08-25T15:26:57.780Z,1.23
2022-08-25T15:29:26.338Z,1.05
2022-08-25T15:31:53.289Z,1.15
2022-08-25T15:34:19.902Z,1.10
2022-08-25T15:36:47.065Z,1.00
2022-08-25T15:39:14.621Z,1.20
2022-08-25T15:41:42.637Z,1.15
2022-08-25T15:44:11.355Z,1.40
2022-08-25T15:46:40.387Z,1.27
2022-08-25T15:49:07.935Z,1.20
2022-08-25T15:51:34.808Z,1.15
2022-08-25T15:54:01.427Z,1.45
2022-08-25T15:56:27.985Z,1.42
2022-08-25T15:58:55.603Z,1.50
2022-08-25T16:01:27.897Z,1.38
2022-08-25T16:03:57.383Z,1.38
2022-08-25T16:06:25.349Z,1.23
2022-08-25T16:11:22.822Z,1.15
2022-08-25T16:13:50.587Z,1.23
2022-08-25T16:16:18.227Z,1.02
2022-08-25T16:18:45.390Z,0.77
2022-08-25T16:21:15.023Z,1.00
2022-08-25T16:23:41.945Z,0.90
2022-08-25T16:26:10.621Z,0.93
2022-08-25T16:28:40.956Z,1.00
2022-08-25T16:31:12.603Z,0.80
2022-08-25T16:36:09.392Z,0.77
2022-08-25T16:38:37.235Z,0.93
2022-08-25T16:41:12.564Z,1.03
2022-08-25T16:43:39.326Z,0.77
2022-08-25T16:46:08.330Z,0.70
2022-08-25T16:48:35.846Z,0.82
2022-08-25T16:51:16.190Z,1.30
2022-08-25T16:54:04.769Z,1.10
2022-08-25T16:56:35.400Z,0.75
2022-08-25T16:59:04.773Z,0.85
2022-08-25T17:01:35.491Z,0.80
2022-08-25T17:04:02.956Z,0.85
2022-08-25T17:06:33.287Z,0.98
2022-08-25T17:08:59.839Z,1.15
2022-08-25T17:11:28.747Z,1.00
2022-08-25T17:16:27.977Z,1.10
2022-08-25T17:18:55.434Z,1.10
2022-08-25T17:21:24.396Z,0.90
2022-08-25T17:23:51.643Z,1.23
2022-08-25T17:26:18.275Z,1.10
2022-08-25T17:28:45.960Z,1.00
2022-08-25T17:31:14.150Z,0.95
2022-08-25T17:33:40.993Z,1.10
2022-08-25T17:36:08.465Z,1.20
2022-08-25T17:38:36.121Z,1.15
2022-08-25T17:41:08.970Z,0.80
2022-08-25T17:43:38.655Z,1.40
2022-08-25T17:46:05.916Z,1.17
2022-08-25T17:48:33.087Z,1.27
2022-08-25T17:51:00.767Z,0.95
2022-08-25T17:53:27.957Z,1.45
2022-08-25T17:56:01.051Z,1.00
2022-08-25T17:58:29.299Z,1.00
2022-08-25T18:00:57.214Z,1.35
2022-08-25T18:03:25.605Z,1.13
2022-08-25T18:05:52.591Z,1.30
2022-08-25T18:08:19.225Z,1.10
2022-08-25T18:10:47.443Z,1.40
2022-08-25T18:13:14.595Z,1.35
2022-08-25T18:15:42.552Z,1.55
2022-08-25T18:18:09.894Z,1.15
2022-08-25T18:20:39.178Z,1.40
2022-08-25T18:23:09.461Z,1.23
2022-08-25T18:25:36.698Z,1.30
2022-08-25T18:28:09.231Z,1.23
2022-08-25T18:30:36.788Z,1.60
2022-08-25T18:33:03.797Z,1.40
2022-08-25T18:35:30.357Z,1.27
2022-08-25T18:38:16.509Z,1.20
2022-08-25T18:40:44.067Z,1.58
2022-08-25T18:43:12.884Z,1.30
2022-08-25T18:45:47.878Z,1.50
2022-08-25T18:48:15.333Z,1.38
2022-08-25T18:50:42.988Z,1.70
2022-08-25T18:53:10.890Z,1.53
2022-08-25T18:55:38.981Z,1.60
2022-08-25T18:58:06.769Z,1.30
2022-08-25T19:00:34.420Z,1.60
2022-08-25T19:03:01.946Z,1.52
2022-08-25T19:05:33.113Z,1.50
2022-08-25T19:08:05.621Z,1.50
2022-08-25T19:10:33.393Z,1.42
2022-08-25T19:13:07.746Z,1.70
2022-08-25T19:15:35.880Z,1.38
2022-08-25T19:18:04.203Z,1.67
2022-08-25T19:20:33.979Z,1.45
2022-08-25T19:23:00.999Z,1.60
2022-08-25T19:25:33.155Z,1.70
2022-08-25T19:28:02.552Z,1.70
2022-08-25T19:30:29.890Z,1.60
2022-08-25T19:32:56.747Z,1.63
2022-08-25T19:35:34.243Z,1.85
2022-08-25T19:38:01.131Z,1.75
2022-08-25T19:40:28.856Z,1.60
2022-08-25T19:42:56.062Z,1.58
2022-08-25T19:45:24.010Z,1.70
2022-08-25T19:47:50.634Z,1.83
2022-08-25T19:50:18.590Z,1.50
2022-08-25T19:52:46.338Z,1.52
2022-08-25T19:55:17.327Z,1.52
2022-08-25T19:57:44.311Z,1.70
2022-08-25T20:00:18.074Z,1.85
2022-08-25T20:02:45.002Z,2.00
2022-08-25T20:05:12.696Z,1.73
2022-08-25T20:07:39.915Z,1.95
2022-08-25T20:10:09.736Z,1.60
2022-08-25T20:12:41.048Z,1.67
2022-08-25T20:15:09.402Z,1.35
2022-08-25T20:17:35.992Z,1.90
2022-08-25T20:20:05.716Z,1.70
2022-08-25T20:22:33.093Z,2.00
2022-08-25T20:25:13.056Z,1.75
2022-08-25T20:27:49.336Z,1.52
2022-08-25T20:30:22.414Z,1.30
2022-08-25T20:32:49.914Z,1.73
2022-08-25T20:35:17.320Z,1.73
2022-08-25T20:37:45.796Z,1.73
2022-08-25T20:40:15.674Z,1.85
2022-08-25T20:42:44.450Z,2.00
2022-08-25T20:45:12.801Z,1.90
2022-08-25T20:47:39.464Z,2.10
2022-08-25T20:50:07.328Z,1.88
2022-08-25T20:52:34.614Z,1.70
2022-08-25T20:55:01.898Z,1.70
2022-08-25T20:57:28.706Z,2.03
2022-08-25T20:59:55.371Z,2.08
2022-08-25T21:02:23.718Z,2.30
2022-08-25T21:04:50.679Z,1.90
2022-08-25T21:07:45.314Z,2.20
2022-08-25T21:10:14.123Z,2.10
2022-08-25T21:12:41.476Z,1.90
2022-08-25T21:15:10.501Z,1.90
2022-08-25T21:17:37.459Z,2.40
2022-08-25T21:20:06.230Z,2.58
2022-08-25T21:22:37.660Z,2.30
2022-08-25T21:25:04.550Z,2.38
2022-08-25T21:27:31.269Z,2.40
2022-08-25T21:29:57.862Z,2.17
2022-08-25T21:32:24.581Z,2.50
2022-08-25T21:34:55.259Z,2.40
2022-08-25T21:37:24.016Z,2.17
2022-08-25T21:39:51.278Z,2.60
2022-08-25T21:42:19.347Z,2.40
2022-08-25T21:44:46.132Z,2.55
2022-08-25T21:47:12.699Z,2.78
2022-08-25T21:49:39.563Z,2.85
2022-08-25T21:52:06.415Z,2.42
2022-08-25T21:54:33.123Z,3.03
2022-08-25T21:57:02.623Z,2.83
2022-08-25T21:59:35.156Z,2.75
2022-08-25T22:02:08.003Z,2.80
2022-08-25T22:04:36.738Z,2.60
2022-08-25T22:07:03.395Z,2.75
2022-08-25T22:09:30.396Z,2.85
2022-08-25T22:11:58.580Z,2.50
2022-08-25T22:14:27.007Z,2.90
2022-08-25T22:16:54.763Z,2.63
2022-08-25T22:19:22.778Z,2.90
2022-08-25T22:21:50.305Z,2.83
2022-08-25T22:24:17.963Z,2.90
2022-08-25T22:26:47.454Z,2.60
2022-08-25T22:29:23.165Z,2.90
2022-08-25T22:31:58.664Z,2.90
2022-08-25T22:34:30.530Z,2.92
2022-08-25T22:36:59.762Z,2.53
2022-08-25T22:39:26.788Z,2.80
2022-08-25T22:41:53.374Z,3.08
2022-08-25T22:44:19.929Z,3.10
2022-08-25T22:46:46.492Z,3.00
2022-08-25T22:49:13.054Z,3.00
2022-08-25T22:51:39.642Z,2.90
2022-08-25T22:54:06.295Z,3.13
2022-08-25T22:56:37.707Z,3.08
2022-08-25T22:59:09.180Z,3.10
2022-08-25T23:01:36.159Z,2.97
2022-08-25T23:04:05.119Z,3.00
2022-08-25T23:06:34.637Z,3.20
2022-08-25T23:09:04.494Z,3.17
2022-08-25T23:11:31.365Z,3.20
2022-08-25T23:14:00.534Z,3.20
2022-08-25T23:16:28.483Z,2.95
2022-08-25T23:18:55.169Z,2.83
2022-08-25T23:21:41.129Z,3.30
2022-08-25T23:24:08.852Z,3.15
2022-08-25T23:26:38.069Z,3.38
2022-08-25T23:29:18.832Z,3.20
2022-08-25T23:31:46.817Z,3.30
2022-08-25T23:34:15.000Z,3.13
2022-08-25T23:36:41.737Z,3.17
2022-08-25T23:39:09.235Z,3.10
2022-08-25T23:41:36.896Z,2.67
2022-08-25T23:44:05.703Z,2.88
2022-08-25T23:46:34.931Z,2.97
2022-08-25T23:49:02.750Z,3.05
2022-08-25T23:51:33.690Z,3.20
2022-08-25T23:54:05.760Z,2.70
2022-08-25T23:56:34.354Z,2.90
2022-08-25T23:59:02.320Z,2.85
